sensor_id;sensor_type;location;lat;lon;timestamp;temperature;humidity
5358;DHT22;2702;51.014;7.170;2023-02-15T00:00:31;3.30;99.90
5358;DHT22;2702;51.014;7.170;2023-02-15T00:02:56;3.30;99.90
5358;DHT22;2702;51.014;7.170;2023-02-15T00:05:22;3.20;99.90
5358;DHT22;2702;51.014;7.170;2023-02-15T00:07:48;3.20;99.90
5358;DHT22;2702;51.014;7.170;2023-02-15T00:10:14;3.20;99.90
5358;DHT22;2702;51.014;7.170;2023-02-15T00:12:40;3.30;99.90
5358;DHT22;2702;51.014;7.170;2023-02-15T00:15:06;3.30;99.90
5358;DHT22;2702;51.014;7.170;2023-02-15T00:17:32;3.30;99.90
5358;DHT22;2702;51.014;7.170;2023-02-15T00:19:58;3.20;99.90
5358;DHT22;2702;51.014;7.170;2023-02-15T00:22:25;3.20;99.90
5358;DHT22;2702;51.014;7.170;2023-02-15T00:24:51;3.20;99.90
5358;DHT22;2702;51.014;7.170;2023-02-15T00:27:17;3.10;99.90
5358;DHT22;2702;51.014;7.170;2023-02-15T00:29:43;3.10;99.90
5358;DHT22;2702;51.014;7.170;2023-02-15T00:32:09;3.10;99.90
5358;DHT22;2702;51.014;7.170;2023-02-15T00:34:34;3.10;99.90
5358;DHT22;2702;51.014;7.170;2023-02-15T00:37:00;3.00;99.90
5358;DHT22;2702;51.014;7.170;2023-02-15T00:39:26;3.10;99.90
5358;DHT22;2702;51.014;7.170;2023-02-15T00:41:52;3.10;99.90
5358;DHT22;2702;51.014;7.170;2023-02-15T00:44:18;3.10;99.90
5358;DHT22;2702;51.014;7.170;2023-02-15T00:46:44;3.10;99.90
5358;DHT22;2702;51.014;7.170;2023-02-15T00:49:10;3.10;99.90
5358;DHT22;2702;51.014;7.170;2023-02-15T00:51:36;3.10;99.90
5358;DHT22;2702;51.014;7.170;2023-02-15T00:54:02;3.00;99.90
5358;DHT22;2702;51.014;7.170;2023-02-15T00:56:28;3.10;99.90
5358;DHT22;2702;51.014;7.170;2023-02-15T00:58:54;3.00;99.90
5358;DHT22;2702;51.014;7.170;2023-02-15T01:01:21;3.00;99.90
5358;DHT22;2702;51.014;7.170;2023-02-15T01:03:47;3.10;99.90
5358;DHT22;2702;51.014;7.170;2023-02-15T01:06:15;3.10;99.90
5358;DHT22;2702;51.014;7.170;2023-02-15T01:08:41;3.00;99.90
5358;DHT22;2702;51.014;7.170;2023-02-15T01:11:13;3.00;99.90
5358;DHT22;2702;51.014;7.170;2023-02-15T01:13:39;3.00;99.90
5358;DHT22;2702;51.014;7.170;2023-02-15T01:16:06;3.00;99.90
5358;DHT22;2702;51.014;7.170;2023-02-15T01:18:33;3.00;99.90
5358;DHT22;2702;51.014;7.170;2023-02-15T01:20:59;3.00;99.90
5358;DHT22;2702;51.014;7.170;2023-02-15T01:23:25;2.90;99.90
5358;DHT22;2702;51.014;7.170;2023-02-15T01:25:51;2.80;99.90
5358;DHT22;2702;51.014;7.170;2023-02-15T01:28:17;2.70;99.90
5358;DHT22;2702;51.014;7.170;2023-02-15T01:30:43;2.80;99.90
5358;DHT22;2702;51.014;7.170;2023-02-15T01:33:10;2.70;99.90
5358;DHT22;2702;51.014;7.170;2023-02-15T01:35:43;2.60;99.90
5358;DHT22;2702;51.014;7.170;2023-02-15T01:38:11;2.60;99.90
5358;DHT22;2702;51.014;7.170;2023-02-15T01:40:37;2.60;99.90
5358;DHT22;2702;51.014;7.170;2023-02-15T01:43:10;2.60;99.90
5358;DHT22;2702;51.014;7.170;2023-02-15T01:45:36;2.60;99.90
5358;DHT22;2702;51.014;7.170;2023-02-15T01:50:41;2.50;99.90
5358;DHT22;2702;51.014;7.170;2023-02-15T01:53:31;2.60;99.90
5358;DHT22;2702;51.014;7.170;2023-02-15T01:56:00;2.50;99.90
5358;DHT22;2702;51.014;7.170;2023-02-15T01:58:28;2.50;99.90
5358;DHT22;2702;51.014;7.170;2023-02-15T02:00:58;2.60;99.90
5358;DHT22;2702;51.014;7.170;2023-02-15T02:03:33;2.60;99.90
5358;DHT22;2702;51.014;7.170;2023-02-15T02:06:02;2.60;99.90
5358;DHT22;2702;51.014;7.170;2023-02-15T02:08:28;2.60;99.90
5358;DHT22;2702;51.014;7.170;2023-02-15T02:10:54;2.50;99.90
5358;DHT22;2702;51.014;7.170;2023-02-15T02:13:19;2.40;99.90
5358;DHT22;2702;51.014;7.170;2023-02-15T02:16:08;2.50;99.90
5358;DHT22;2702;51.014;7.170;2023-02-15T02:24:18;2.50;99.90
5358;DHT22;2702;51.014;7.170;2023-02-15T02:35:16;2.50;99.90
5358;DHT22;2702;51.014;7.170;2023-02-15T02:40:40;2.40;99.90
5358;DHT22;2702;51.014;7.170;2023-02-15T02:45:57;2.40;99.90
5358;DHT22;2702;51.014;7.170;2023-02-15T02:48:27;2.20;99.90
5358;DHT22;2702;51.014;7.170;2023-02-15T02:50:53;2.20;99.90
5358;DHT22;2702;51.014;7.170;2023-02-15T02:53:19;2.20;99.90
5358;DHT22;2702;51.014;7.170;2023-02-15T02:55:49;2.20;99.90
5358;DHT22;2702;51.014;7.170;2023-02-15T02:58:42;2.20;99.90
5358;DHT22;2702;51.014;7.170;2023-02-15T03:01:27;2.20;99.90
5358;DHT22;2702;51.014;7.170;2023-02-15T03:04:01;2.10;99.90
5358;DHT22;2702;51.014;7.170;2023-02-15T03:06:36;2.20;99.90
5358;DHT22;2702;51.014;7.170;2023-02-15T03:09:12;2.10;99.90
5358;DHT22;2702;51.014;7.170;2023-02-15T03:11:44;2.10;99.90
5358;DHT22;2702;51.014;7.170;2023-02-15T03:14:12;2.00;99.90
5358;DHT22;2702;51.014;7.170;2023-02-15T03:16:40;2.10;99.90
5358;DHT22;2702;51.014;7.170;2023-02-15T03:19:10;2.00;99.90
5358;DHT22;2702;51.014;7.170;2023-02-15T03:21:48;2.00;99.90
5358;DHT22;2702;51.014;7.170;2023-02-15T03:24:38;1.90;99.90
5358;DHT22;2702;51.014;7.170;2023-02-15T03:27:10;2.00;99.90
5358;DHT22;2702;51.014;7.170;2023-02-15T03:29:38;1.90;99.90
5358;DHT22;2702;51.014;7.170;2023-02-15T03:32:07;2.00;99.90
5358;DHT22;2702;51.014;7.170;2023-02-15T03:34:35;2.00;99.90
5358;DHT22;2702;51.014;7.170;2023-02-15T03:37:13;2.00;99.90
5358;DHT22;2702;51.014;7.170;2023-02-15T03:39:47;2.00;99.90
5358;DHT22;2702;51.014;7.170;2023-02-15T03:47:35;2.00;99.90
5358;DHT22;2702;51.014;7.170;2023-02-15T03:52:55;1.80;99.90
5358;DHT22;2702;51.014;7.170;2023-02-15T03:55:22;1.80;99.90
5358;DHT22;2702;51.014;7.170;2023-02-15T03:57:49;1.80;99.90
5358;DHT22;2702;51.014;7.170;2023-02-15T04:00:37;1.80;99.90
5358;DHT22;2702;51.014;7.170;2023-02-15T04:04:26;1.80;99.90
5358;DHT22;2702;51.014;7.170;2023-02-15T04:06:27;1.80;99.90
5358;DHT22;2702;51.014;7.170;2023-02-15T04:08:53;1.80;99.90
5358;DHT22;2702;51.014;7.170;2023-02-15T04:11:37;1.80;99.90
5358;DHT22;2702;51.014;7.170;2023-02-15T04:14:03;1.80;99.90
5358;DHT22;2702;51.014;7.170;2023-02-15T04:16:49;1.70;99.90
5358;DHT22;2702;51.014;7.170;2023-02-15T04:19:15;1.70;99.90
5358;DHT22;2702;51.014;7.170;2023-02-15T04:21:59;1.70;99.90
5358;DHT22;2702;51.014;7.170;2023-02-15T04:24:44;1.80;99.90
5358;DHT22;2702;51.014;7.170;2023-02-15T04:27:28;1.80;99.90
5358;DHT22;2702;51.014;7.170;2023-02-15T04:29:54;1.80;99.90
5358;DHT22;2702;51.014;7.170;2023-02-15T04:32:19;1.70;99.90
5358;DHT22;2702;51.014;7.170;2023-02-15T04:34:45;1.70;99.90
5358;DHT22;2702;51.014;7.170;2023-02-15T04:37:11;1.80;99.90
5358;DHT22;2702;51.014;7.170;2023-02-15T04:39:37;1.70;99.90
5358;DHT22;2702;51.014;7.170;2023-02-15T04:42:02;1.70;99.90
5358;DHT22;2702;51.014;7.170;2023-02-15T04:44:28;1.70;99.90
5358;DHT22;2702;51.014;7.170;2023-02-15T04:46:54;1.60;99.90
5358;DHT22;2702;51.014;7.170;2023-02-15T04:49:20;1.50;99.90
5358;DHT22;2702;51.014;7.170;2023-02-15T04:51:46;1.60;99.90
5358;DHT22;2702;51.014;7.170;2023-02-15T04:54:12;1.60;99.90
5358;DHT22;2702;51.014;7.170;2023-02-15T04:56:37;1.50;99.90
5358;DHT22;2702;51.014;7.170;2023-02-15T04:59:04;1.50;99.90
5358;DHT22;2702;51.014;7.170;2023-02-15T05:01:30;1.60;99.90
5358;DHT22;2702;51.014;7.170;2023-02-15T05:03:56;1.60;99.90
5358;DHT22;2702;51.014;7.170;2023-02-15T05:06:22;1.70;99.90
5358;DHT22;2702;51.014;7.170;2023-02-15T05:08:48;1.70;99.90
5358;DHT22;2702;51.014;7.170;2023-02-15T05:11:14;1.70;99.90
5358;DHT22;2702;51.014;7.170;2023-02-15T05:13:40;1.60;99.90
5358;DHT22;2702;51.014;7.170;2023-02-15T05:16:05;1.60;99.90
5358;DHT22;2702;51.014;7.170;2023-02-15T05:18:32;1.60;99.90
5358;DHT22;2702;51.014;7.170;2023-02-15T05:20:58;1.60;99.90
5358;DHT22;2702;51.014;7.170;2023-02-15T05:23:23;1.60;99.90
5358;DHT22;2702;51.014;7.170;2023-02-15T05:25:50;1.50;99.90
5358;DHT22;2702;51.014;7.170;2023-02-15T05:28:36;1.60;99.90
5358;DHT22;2702;51.014;7.170;2023-02-15T05:31:11;1.50;99.90
5358;DHT22;2702;51.014;7.170;2023-02-15T05:33:38;1.50;99.90
5358;DHT22;2702;51.014;7.170;2023-02-15T05:36:05;1.50;99.90
5358;DHT22;2702;51.014;7.170;2023-02-15T05:38:32;1.40;99.90
5358;DHT22;2702;51.014;7.170;2023-02-15T05:40:58;1.40;99.90
5358;DHT22;2702;51.014;7.170;2023-02-15T05:43:24;1.50;99.90
5358;DHT22;2702;51.014;7.170;2023-02-15T05:45:54;1.50;99.90
5358;DHT22;2702;51.014;7.170;2023-02-15T05:48:22;1.40;99.90
5358;DHT22;2702;51.014;7.170;2023-02-15T05:51:03;1.50;99.90
5358;DHT22;2702;51.014;7.170;2023-02-15T05:53:31;1.40;99.90
5358;DHT22;2702;51.014;7.170;2023-02-15T05:55:57;1.50;99.90
5358;DHT22;2702;51.014;7.170;2023-02-15T05:58:30;1.40;99.90
5358;DHT22;2702;51.014;7.170;2023-02-15T06:00:56;1.40;99.90
5358;DHT22;2702;51.014;7.170;2023-02-15T06:03:23;1.30;99.90
5358;DHT22;2702;51.014;7.170;2023-02-15T06:05:49;1.30;99.90
5358;DHT22;2702;51.014;7.170;2023-02-15T06:08:15;1.30;99.90
5358;DHT22;2702;51.014;7.170;2023-02-15T06:10:41;1.20;99.90
5358;DHT22;2702;51.014;7.170;2023-02-15T06:13:06;1.20;99.90
5358;DHT22;2702;51.014;7.170;2023-02-15T06:15:33;1.20;99.90
5358;DHT22;2702;51.014;7.170;2023-02-15T06:17:58;1.20;99.90
5358;DHT22;2702;51.014;7.170;2023-02-15T06:20:24;1.20;99.90
5358;DHT22;2702;51.014;7.170;2023-02-15T06:22:50;1.20;99.90
5358;DHT22;2702;51.014;7.170;2023-02-15T06:25:16;1.20;99.90
5358;DHT22;2702;51.014;7.170;2023-02-15T06:27:42;1.20;99.90
5358;DHT22;2702;51.014;7.170;2023-02-15T06:30:10;1.10;99.90
5358;DHT22;2702;51.014;7.170;2023-02-15T06:32:36;1.10;99.90
5358;DHT22;2702;51.014;7.170;2023-02-15T06:35:02;1.00;99.90
5358;DHT22;2702;51.014;7.170;2023-02-15T06:37:28;1.00;99.90
5358;DHT22;2702;51.014;7.170;2023-02-15T06:39:54;1.00;99.90
5358;DHT22;2702;51.014;7.170;2023-02-15T06:42:20;1.00;99.90
5358;DHT22;2702;51.014;7.170;2023-02-15T06:44:46;1.10;99.90
5358;DHT22;2702;51.014;7.170;2023-02-15T06:47:12;1.00;99.90
5358;DHT22;2702;51.014;7.170;2023-02-15T06:49:38;1.00;99.90
5358;DHT22;2702;51.014;7.170;2023-02-15T06:52:04;1.00;99.90
5358;DHT22;2702;51.014;7.170;2023-02-15T06:54:30;0.90;99.90
5358;DHT22;2702;51.014;7.170;2023-02-15T06:56:56;1.00;99.90
5358;DHT22;2702;51.014;7.170;2023-02-15T06:59:22;1.00;99.90
5358;DHT22;2702;51.014;7.170;2023-02-15T07:01:48;1.00;99.90
5358;DHT22;2702;51.014;7.170;2023-02-15T07:04:15;1.00;99.90
5358;DHT22;2702;51.014;7.170;2023-02-15T07:06:41;1.00;99.90
5358;DHT22;2702;51.014;7.170;2023-02-15T07:09:07;0.90;99.90
5358;DHT22;2702;51.014;7.170;2023-02-15T07:11:33;0.90;99.90
5358;DHT22;2702;51.014;7.170;2023-02-15T07:14:17;1.00;99.90
5358;DHT22;2702;51.014;7.170;2023-02-15T07:16:43;1.00;99.90
5358;DHT22;2702;51.014;7.170;2023-02-15T07:19:09;1.00;99.90
5358;DHT22;2702;51.014;7.170;2023-02-15T07:21:36;1.00;99.90
5358;DHT22;2702;51.014;7.170;2023-02-15T07:24:02;1.10;99.90
5358;DHT22;2702;51.014;7.170;2023-02-15T07:26:30;1.00;99.90
5358;DHT22;2702;51.014;7.170;2023-02-15T07:28:56;1.10;99.90
5358;DHT22;2702;51.014;7.170;2023-02-15T07:31:22;1.00;99.90
5358;DHT22;2702;51.014;7.170;2023-02-15T07:33:48;1.10;99.90
5358;DHT22;2702;51.014;7.170;2023-02-15T07:36:14;1.10;99.90
5358;DHT22;2702;51.014;7.170;2023-02-15T07:38:41;1.10;99.90
5358;DHT22;2702;51.014;7.170;2023-02-15T07:41:13;1.20;99.90
5358;DHT22;2702;51.014;7.170;2023-02-15T07:43:41;1.20;99.90
5358;DHT22;2702;51.014;7.170;2023-02-15T07:46:10;1.20;99.90
5358;DHT22;2702;51.014;7.170;2023-02-15T07:48:38;1.30;99.90
5358;DHT22;2702;51.014;7.170;2023-02-15T07:51:07;1.30;99.90
5358;DHT22;2702;51.014;7.170;2023-02-15T07:53:33;1.40;99.90
5358;DHT22;2702;51.014;7.170;2023-02-15T07:56:00;1.40;99.90
5358;DHT22;2702;51.014;7.170;2023-02-15T07:58:26;1.40;99.90
5358;DHT22;2702;51.014;7.170;2023-02-15T08:01:13;1.50;99.90
5358;DHT22;2702;51.014;7.170;2023-02-15T08:03:39;1.60;99.90
5358;DHT22;2702;51.014;7.170;2023-02-15T08:06:06;1.60;99.90
5358;DHT22;2702;51.014;7.170;2023-02-15T08:08:34;1.60;99.90
5358;DHT22;2702;51.014;7.170;2023-02-15T08:13:58;1.80;99.90
5358;DHT22;2702;51.014;7.170;2023-02-15T08:16:33;1.80;99.90
5358;DHT22;2702;51.014;7.170;2023-02-15T08:19:03;1.90;99.90
5358;DHT22;2702;51.014;7.170;2023-02-15T08:21:29;1.90;99.90
5358;DHT22;2702;51.014;7.170;2023-02-15T08:23:57;2.00;99.90
5358;DHT22;2702;51.014;7.170;2023-02-15T08:26:24;2.00;99.90
5358;DHT22;2702;51.014;7.170;2023-02-15T08:28:51;2.10;99.90
5358;DHT22;2702;51.014;7.170;2023-02-15T08:31:17;2.20;99.90
5358;DHT22;2702;51.014;7.170;2023-02-15T08:33:44;2.20;99.90
5358;DHT22;2702;51.014;7.170;2023-02-15T08:36:13;2.40;99.90
5358;DHT22;2702;51.014;7.170;2023-02-15T08:38:41;2.40;99.90
5358;DHT22;2702;51.014;7.170;2023-02-15T08:41:16;2.50;99.90
5358;DHT22;2702;51.014;7.170;2023-02-15T08:43:44;2.60;99.90
5358;DHT22;2702;51.014;7.170;2023-02-15T08:46:11;2.60;99.90
5358;DHT22;2702;51.014;7.170;2023-02-15T08:48:38;2.70;99.90
5358;DHT22;2702;51.014;7.170;2023-02-15T08:51:14;2.70;99.90
5358;DHT22;2702;51.014;7.170;2023-02-15T08:53:47;2.80;99.90
5358;DHT22;2702;51.014;7.170;2023-02-15T08:56:18;2.90;99.90
5358;DHT22;2702;51.014;7.170;2023-02-15T08:58:44;2.90;99.90
5358;DHT22;2702;51.014;7.170;2023-02-15T09:01:15;2.90;99.90
5358;DHT22;2702;51.014;7.170;2023-02-15T09:03:48;3.00;99.90
5358;DHT22;2702;51.014;7.170;2023-02-15T09:06:18;3.10;99.90
5358;DHT22;2702;51.014;7.170;2023-02-15T09:08:44;3.10;99.90
5358;DHT22;2702;51.014;7.170;2023-02-15T09:13:49;3.30;99.90
5358;DHT22;2702;51.014;7.170;2023-02-15T09:16:15;3.50;99.90
5358;DHT22;2702;51.014;7.170;2023-02-15T09:18:44;3.60;99.90
5358;DHT22;2702;51.014;7.170;2023-02-15T09:21:12;3.70;99.90
5358;DHT22;2702;51.014;7.170;2023-02-15T09:23:43;3.90;99.90
5358;DHT22;2702;51.014;7.170;2023-02-15T09:26:12;4.10;99.90
5358;DHT22;2702;51.014;7.170;2023-02-15T09:28:38;4.20;99.90
5358;DHT22;2702;51.014;7.170;2023-02-15T09:31:16;4.30;99.90
5358;DHT22;2702;51.014;7.170;2023-02-15T09:33:43;4.50;99.90
5358;DHT22;2702;51.014;7.170;2023-02-15T09:36:16;4.60;99.90
5358;DHT22;2702;51.014;7.170;2023-02-15T09:38:44;4.70;99.90
5358;DHT22;2702;51.014;7.170;2023-02-15T09:51:03;5.10;99.90
5358;DHT22;2702;51.014;7.170;2023-02-15T10:10:33;6.00;99.90
5358;DHT22;2702;51.014;7.170;2023-02-15T10:13:15;6.10;99.90
5358;DHT22;2702;51.014;7.170;2023-02-15T10:24:30;6.60;99.90
5358;DHT22;2702;51.014;7.170;2023-02-15T10:27:18;6.60;99.90
5358;DHT22;2702;51.014;7.170;2023-02-15T10:30:06;6.50;99.90
5358;DHT22;2702;51.014;7.170;2023-02-15T10:35:20;6.60;99.90
5358;DHT22;2702;51.014;7.170;2023-02-15T10:38:15;6.70;1.00
5358;DHT22;2702;51.014;7.170;2023-02-15T10:40:57;6.90;99.90
5358;DHT22;2702;51.014;7.170;2023-02-15T10:46:40;7.10;99.90
5358;DHT22;2702;51.014;7.170;2023-02-15T10:49:13;7.20;1.00
5358;DHT22;2702;51.014;7.170;2023-02-15T10:54:26;7.50;23.70
5358;DHT22;2702;51.014;7.170;2023-02-15T11:02:26;7.70;99.90
5358;DHT22;2702;51.014;7.170;2023-02-15T11:07:47;7.80;99.90
5358;DHT22;2702;51.014;7.170;2023-02-15T11:10:29;7.90;1.00
5358;DHT22;2702;51.014;7.170;2023-02-15T11:12:57;8.10;99.90
5358;DHT22;2702;51.014;7.170;2023-02-15T11:18:48;8.20;99.90
5358;DHT22;2702;51.014;7.170;2023-02-15T11:21:30;8.30;99.90
5358;DHT22;2702;51.014;7.170;2023-02-15T11:23:41;8.30;99.90
5358;DHT22;2702;51.014;7.170;2023-02-15T11:29:18;8.40;99.90
5358;DHT22;2702;51.014;7.170;2023-02-15T11:31:55;8.60;99.90
5358;DHT22;2702;51.014;7.170;2023-02-15T11:34:34;8.70;99.90
5358;DHT22;2702;51.014;7.170;2023-02-15T11:37:09;8.70;99.90
5358;DHT22;2702;51.014;7.170;2023-02-15T11:39:35;8.80;99.90
5358;DHT22;2702;51.014;7.170;2023-02-15T11:42:06;8.80;99.90
5358;DHT22;2702;51.014;7.170;2023-02-15T11:44:51;8.90;99.90
5358;DHT22;2702;51.014;7.170;2023-02-15T11:47:20;9.00;99.90
5358;DHT22;2702;51.014;7.170;2023-02-15T11:49:46;9.10;99.90
5358;DHT22;2702;51.014;7.170;2023-02-15T11:52:14;9.20;99.90
5358;DHT22;2702;51.014;7.170;2023-02-15T11:54:43;9.40;99.90
5358;DHT22;2702;51.014;7.170;2023-02-15T11:57:23;9.50;99.90
5358;DHT22;2702;51.014;7.170;2023-02-15T12:00:01;9.50;99.90
5358;DHT22;2702;51.014;7.170;2023-02-15T12:02:31;9.60;99.90
5358;DHT22;2702;51.014;7.170;2023-02-15T12:05:03;9.60;99.90
5358;DHT22;2702;51.014;7.170;2023-02-15T12:08:16;9.70;99.90
5358;DHT22;2702;51.014;7.170;2023-02-15T12:12:45;9.90;99.90
5358;DHT22;2702;51.014;7.170;2023-02-15T12:15:12;9.90;99.90
5358;DHT22;2702;51.014;7.170;2023-02-15T12:17:39;10.10;99.90
5358;DHT22;2702;51.014;7.170;2023-02-15T12:22:51;10.30;99.90
5358;DHT22;2702;51.014;7.170;2023-02-15T12:25:41;10.40;99.90
5358;DHT22;2702;51.014;7.170;2023-02-15T12:28:25;10.50;99.90
5358;DHT22;2702;51.014;7.170;2023-02-15T12:30:54;10.60;99.90
5358;DHT22;2702;51.014;7.170;2023-02-15T12:38:42;10.70;99.90
5358;DHT22;2702;51.014;7.170;2023-02-15T12:41:24;10.80;99.90
5358;DHT22;2702;51.014;7.170;2023-02-15T12:44:18;10.80;99.90
5358;DHT22;2702;51.014;7.170;2023-02-15T12:49:27;10.90;99.90
5358;DHT22;2702;51.014;7.170;2023-02-15T12:51:56;11.00;99.90
5358;DHT22;2702;51.014;7.170;2023-02-15T12:54:30;11.00;99.90
5358;DHT22;2702;51.014;7.170;2023-02-15T12:56:57;11.10;99.90
5358;DHT22;2702;51.014;7.170;2023-02-15T12:59:24;11.00;99.90
5358;DHT22;2702;51.014;7.170;2023-02-15T13:01:52;11.20;99.90
5358;DHT22;2702;51.014;7.170;2023-02-15T13:04:28;11.20;99.90
5358;DHT22;2702;51.014;7.170;2023-02-15T13:06:57;11.20;99.90
5358;DHT22;2702;51.014;7.170;2023-02-15T13:14:35;11.30;99.90
5358;DHT22;2702;51.014;7.170;2023-02-15T13:17:04;11.30;99.90
5358;DHT22;2702;51.014;7.170;2023-02-15T13:19:38;11.30;99.90
5358;DHT22;2702;51.014;7.170;2023-02-15T13:22:10;11.40;99.90
5358;DHT22;2702;51.014;7.170;2023-02-15T13:24:43;11.50;99.90
5358;DHT22;2702;51.014;7.170;2023-02-15T13:27:16;11.50;99.90
5358;DHT22;2702;51.014;7.170;2023-02-15T13:29:46;11.60;99.90
5358;DHT22;2702;51.014;7.170;2023-02-15T13:35:15;11.80;99.90
5358;DHT22;2702;51.014;7.170;2023-02-15T13:38:08;11.80;99.90
5358;DHT22;2702;51.014;7.170;2023-02-15T13:49:09;12.00;99.90
5358;DHT22;2702;51.014;7.170;2023-02-15T13:52:01;11.80;99.90
5358;DHT22;2702;51.014;7.170;2023-02-15T14:17:43;12.20;99.90
5358;DHT22;2702;51.014;7.170;2023-02-15T14:20:36;12.20;99.90
5358;DHT22;2702;51.014;7.170;2023-02-15T14:23:29;12.30;99.90
5358;DHT22;2702;51.014;7.170;2023-02-15T14:26:21;12.20;99.90
5358;DHT22;2702;51.014;7.170;2023-02-15T14:31:45;12.30;99.90
5358;DHT22;2702;51.014;7.170;2023-02-15T14:34:21;12.30;99.90
5358;DHT22;2702;51.014;7.170;2023-02-15T14:36:50;12.30;99.90
5358;DHT22;2702;51.014;7.170;2023-02-15T14:40:18;12.30;99.90
5358;DHT22;2702;51.014;7.170;2023-02-15T14:42:54;12.20;99.90
5358;DHT22;2702;51.014;7.170;2023-02-15T14:45:28;12.00;99.90
5358;DHT22;2702;51.014;7.170;2023-02-15T14:48:07;11.90;99.90
5358;DHT22;2702;51.014;7.170;2023-02-15T14:50:44;11.90;99.90
5358;DHT22;2702;51.014;7.170;2023-02-15T14:53:36;11.90;99.90
5358;DHT22;2702;51.014;7.170;2023-02-15T14:58:57;11.50;99.90
5358;DHT22;2702;51.014;7.170;2023-02-15T15:01:36;11.50;99.90
5358;DHT22;2702;51.014;7.170;2023-02-15T15:04:21;11.50;99.90
5358;DHT22;2702;51.014;7.170;2023-02-15T15:09:35;11.40;99.90
5358;DHT22;2702;51.014;7.170;2023-02-15T15:14:48;11.30;99.90
5358;DHT22;2702;51.014;7.170;2023-02-15T15:25:55;11.00;99.90
5358;DHT22;2702;51.014;7.170;2023-02-15T15:46:12;10.20;99.90
5358;DHT22;2702;51.014;7.170;2023-02-15T15:48:35;10.20;99.90
5358;DHT22;2702;51.014;7.170;2023-02-15T15:51:20;10.10;99.90
5358;DHT22;2702;51.014;7.170;2023-02-15T15:53:50;10.00;99.90
5358;DHT22;2702;51.014;7.170;2023-02-15T15:56:26;10.00;99.90
5358;DHT22;2702;51.014;7.170;2023-02-15T15:59:02;9.90;99.90
5358;DHT22;2702;51.014;7.170;2023-02-15T16:01:38;9.80;99.90
5358;DHT22;2702;51.014;7.170;2023-02-15T16:04:05;9.70;99.90
5358;DHT22;2702;51.014;7.170;2023-02-15T16:06:36;9.60;99.90
5358;DHT22;2702;51.014;7.170;2023-02-15T16:09:22;9.60;99.90
5358;DHT22;2702;51.014;7.170;2023-02-15T16:11:53;9.50;99.90
5358;DHT22;2702;51.014;7.170;2023-02-15T16:14:32;9.40;99.90
5358;DHT22;2702;51.014;7.170;2023-02-15T16:17:02;9.30;99.90
5358;DHT22;2702;51.014;7.170;2023-02-15T16:19:40;9.20;99.90
5358;DHT22;2702;51.014;7.170;2023-02-15T16:22:12;9.20;99.90
5358;DHT22;2702;51.014;7.170;2023-02-15T16:27:36;9.10;99.90
5358;DHT22;2702;51.014;7.170;2023-02-15T16:30:23;9.20;99.90
5358;DHT22;2702;51.014;7.170;2023-02-15T16:32:54;9.10;99.90
5358;DHT22;2702;51.014;7.170;2023-02-15T16:35:22;9.10;99.90
5358;DHT22;2702;51.014;7.170;2023-02-15T16:37:48;9.00;99.90
5358;DHT22;2702;51.014;7.170;2023-02-15T16:42:54;8.90;99.90
5358;DHT22;2702;51.014;7.170;2023-02-15T16:45:24;8.80;99.90
5358;DHT22;2702;51.014;7.170;2023-02-15T16:47:55;8.80;99.90
5358;DHT22;2702;51.014;7.170;2023-02-15T16:52:54;8.70;99.90
5358;DHT22;2702;51.014;7.170;2023-02-15T16:55:30;8.50;99.90
5358;DHT22;2702;51.014;7.170;2023-02-15T16:58:01;8.60;99.90
5358;DHT22;2702;51.014;7.170;2023-02-15T17:00:35;8.50;99.90
5358;DHT22;2702;51.014;7.170;2023-02-15T17:03:19;8.40;99.90
5358;DHT22;2702;51.014;7.170;2023-02-15T17:05:50;8.40;99.90
5358;DHT22;2702;51.014;7.170;2023-02-15T17:08:26;8.20;99.90
5358;DHT22;2702;51.014;7.170;2023-02-15T17:16:47;8.10;99.90
5358;DHT22;2702;51.014;7.170;2023-02-15T17:19:24;8.10;99.90
5358;DHT22;2702;51.014;7.170;2023-02-15T17:22:00;8.10;99.90
5358;DHT22;2702;51.014;7.170;2023-02-15T17:24:41;8.10;99.90
5358;DHT22;2702;51.014;7.170;2023-02-15T17:27:22;8.00;99.90
5358;DHT22;2702;51.014;7.170;2023-02-15T17:29:52;8.00;99.90
5358;DHT22;2702;51.014;7.170;2023-02-15T17:32:23;7.90;99.90
5358;DHT22;2702;51.014;7.170;2023-02-15T17:35:29;7.90;99.90
5358;DHT22;2702;51.014;7.170;2023-02-15T17:38:19;7.90;99.90
5358;DHT22;2702;51.014;7.170;2023-02-15T17:40:45;8.00;99.90
5358;DHT22;2702;51.014;7.170;2023-02-15T17:43:11;7.80;99.90
5358;DHT22;2702;51.014;7.170;2023-02-15T17:45:52;7.80;99.90
5358;DHT22;2702;51.014;7.170;2023-02-15T17:48:22;7.80;99.90
5358;DHT22;2702;51.014;7.170;2023-02-15T17:50:49;7.80;99.90
5358;DHT22;2702;51.014;7.170;2023-02-15T17:53:17;7.80;99.90
5358;DHT22;2702;51.014;7.170;2023-02-15T17:55:44;7.80;99.90
5358;DHT22;2702;51.014;7.170;2023-02-15T17:58:15;7.80;99.90
5358;DHT22;2702;51.014;7.170;2023-02-15T18:00:52;7.80;99.90
5358;DHT22;2702;51.014;7.170;2023-02-15T18:03:47;7.70;99.90
5358;DHT22;2702;51.014;7.170;2023-02-15T18:06:32;7.70;99.90
5358;DHT22;2702;51.014;7.170;2023-02-15T18:09:19;7.70;99.90
5358;DHT22;2702;51.014;7.170;2023-02-15T18:12:23;7.60;99.90
5358;DHT22;2702;51.014;7.170;2023-02-15T18:14:50;7.60;99.90
5358;DHT22;2702;51.014;7.170;2023-02-15T18:17:17;7.60;99.90
5358;DHT22;2702;51.014;7.170;2023-02-15T18:19:44;7.60;99.90
5358;DHT22;2702;51.014;7.170;2023-02-15T18:22:13;7.50;99.90
5358;DHT22;2702;51.014;7.170;2023-02-15T18:24:40;7.60;99.90
5358;DHT22;2702;51.014;7.170;2023-02-15T18:27:06;7.50;99.90
5358;DHT22;2702;51.014;7.170;2023-02-15T18:29:32;7.50;99.90
5358;DHT22;2702;51.014;7.170;2023-02-15T18:31:59;7.40;99.90
5358;DHT22;2702;51.014;7.170;2023-02-15T18:34:35;7.40;99.90
5358;DHT22;2702;51.014;7.170;2023-02-15T18:37:04;7.40;99.90
5358;DHT22;2702;51.014;7.170;2023-02-15T18:39:45;7.40;99.90
5358;DHT22;2702;51.014;7.170;2023-02-15T18:42:29;7.40;99.90
5358;DHT22;2702;51.014;7.170;2023-02-15T18:45:18;7.40;99.90
5358;DHT22;2702;51.014;7.170;2023-02-15T18:47:46;7.30;99.90
5358;DHT22;2702;51.014;7.170;2023-02-15T18:50:14;7.30;99.90
5358;DHT22;2702;51.014;7.170;2023-02-15T18:52:40;7.20;99.90
5358;DHT22;2702;51.014;7.170;2023-02-15T18:55:20;7.20;99.90
5358;DHT22;2702;51.014;7.170;2023-02-15T18:57:47;7.10;99.90
5358;DHT22;2702;51.014;7.170;2023-02-15T19:00:26;7.10;99.90
5358;DHT22;2702;51.014;7.170;2023-02-15T19:02:55;7.10;99.90
5358;DHT22;2702;51.014;7.170;2023-02-15T19:05:22;7.10;99.90
5358;DHT22;2702;51.014;7.170;2023-02-15T19:07:48;6.90;99.90
5358;DHT22;2702;51.014;7.170;2023-02-15T19:10:17;7.00;99.90
5358;DHT22;2702;51.014;7.170;2023-02-15T19:12:44;7.00;99.90
5358;DHT22;2702;51.014;7.170;2023-02-15T19:15:24;7.00;99.90
5358;DHT22;2702;51.014;7.170;2023-02-15T19:17:52;6.90;99.90
5358;DHT22;2702;51.014;7.170;2023-02-15T19:20:20;6.90;99.90
5358;DHT22;2702;51.014;7.170;2023-02-15T19:22:49;6.90;99.90
5358;DHT22;2702;51.014;7.170;2023-02-15T19:25:24;6.90;99.90
5358;DHT22;2702;51.014;7.170;2023-02-15T19:27:51;6.80;99.90
5358;DHT22;2702;51.014;7.170;2023-02-15T19:30:30;6.80;99.90
5358;DHT22;2702;51.014;7.170;2023-02-15T19:32:57;6.80;99.90
5358;DHT22;2702;51.014;7.170;2023-02-15T19:35:30;6.80;99.90
5358;DHT22;2702;51.014;7.170;2023-02-15T19:38:01;6.80;99.90
5358;DHT22;2702;51.014;7.170;2023-02-15T19:40:34;6.80;99.90
5358;DHT22;2702;51.014;7.170;2023-02-15T19:43:01;6.70;99.90
5358;DHT22;2702;51.014;7.170;2023-02-15T19:45:29;6.70;99.90
5358;DHT22;2702;51.014;7.170;2023-02-15T19:47:56;6.60;99.90
5358;DHT22;2702;51.014;7.170;2023-02-15T19:50:24;6.60;99.90
5358;DHT22;2702;51.014;7.170;2023-02-15T19:52:51;6.50;99.90
5358;DHT22;2702;51.014;7.170;2023-02-15T19:55:22;6.50;99.90
5358;DHT22;2702;51.014;7.170;2023-02-15T19:57:49;6.50;99.90
5358;DHT22;2702;51.014;7.170;2023-02-15T20:00:22;6.50;99.90
5358;DHT22;2702;51.014;7.170;2023-02-15T20:02:48;6.40;99.90